EJA823 KSAN-KLAX
Flight info
| Callsign | EJA823 |
|---|---|
| Flight time | 0h 32m |
| Altitude | 10000 |
| Route | CWARD2 SLI |
| Aircraft | C700/M-SBDGHM1RWXY/LB2 |
Departure
| Time | 2026-04-23 02:39 |
|---|---|
| Airport | San Diego International Airport (KSAN) |
Arrival
| Time | 2026-04-23 03:11 |
|---|---|
| Airport | Los Angeles International Airport (KLAX) |
| Time | Latitude | Longitude | Altitude | Speed | Heading |
|---|---|---|---|---|---|
| 2026-04-23 02:16 | 32.73330 | -117.17821 | 23 ft | 0 kts | 147° |
| 2026-04-23 02:31 | 32.73303 | -117.17801 | 23 ft | 8 kts | 147° |
| 2026-04-23 02:31 | 32.73293 | -117.17797 | 21 ft | 1 kts | 178° |
| 2026-04-23 02:31 | 32.73275 | -117.17824 | 21 ft | 9 kts | 266° |
| 2026-04-23 02:31 | 32.73284 | -117.17875 | 19 ft | 10 kts | 284° |
| 2026-04-23 02:32 | 32.73288 | -117.17958 | 23 ft | 10 kts | 243° |
| 2026-04-23 02:32 | 32.73221 | -117.17932 | 19 ft | 16 kts | 112° |
| 2026-04-23 02:32 | 32.73199 | -117.17843 | 21 ft | 9 kts | 106° |
| 2026-04-23 02:32 | 32.73181 | -117.17769 | 22 ft | 1 kts | 105° |
| 2026-04-23 02:33 | 32.73175 | -117.17745 | 21 ft | 0 kts | 106° |
| 2026-04-23 02:33 | 32.73174 | -117.17742 | 21 ft | 0 kts | 106° |
| 2026-04-23 02:33 | 32.73174 | -117.17741 | 21 ft | 0 kts | 106° |
| 2026-04-23 02:33 | 32.73174 | -117.17740 | 21 ft | 0 kts | 106° |
| 2026-04-23 02:34 | 32.73165 | -117.17706 | 22 ft | 5 kts | 110° |
| 2026-04-23 02:34 | 32.73156 | -117.17686 | 20 ft | 0 kts | 128° |
| 2026-04-23 02:34 | 32.73155 | -117.17686 | 20 ft | 0 kts | 128° |
| 2026-04-23 02:34 | 32.73136 | -117.17670 | 20 ft | 6 kts | 157° |
| 2026-04-23 02:35 | 32.73130 | -117.17668 | 24 ft | 0 kts | 169° |
| 2026-04-23 02:38 | 32.73117 | -117.17668 | 20 ft | 8 kts | 187° |
| 2026-04-23 02:38 | 32.73085 | -117.17677 | 19 ft | 8 kts | 198° |
| 2026-04-23 02:38 | 32.73063 | -117.17760 | 20 ft | 0 kts | 287° |
| 2026-04-23 02:38 | 32.73075 | -117.17807 | 21 ft | 29 kts | 287° |
| 2026-04-23 02:39 | 32.73225 | -117.18431 | 21 ft | 125 kts | 287° |
| 2026-04-23 02:39 | 32.73521 | -117.19709 | 192 ft | 186 kts | 287° |
| 2026-04-23 02:39 | 32.73920 | -117.21160 | 1385 ft | 189 kts | 300° |
| 2026-04-23 02:39 | 32.74689 | -117.22482 | 2732 ft | 201 kts | 307° |
| 2026-04-23 02:40 | 32.75512 | -117.23879 | 4154 ft | 212 kts | 304° |
| 2026-04-23 02:40 | 32.76347 | -117.25385 | 5614 ft | 227 kts | 303° |
| 2026-04-23 02:40 | 32.77310 | -117.27127 | 6010 ft | 263 kts | 303° |
| 2026-04-23 02:40 | 32.78248 | -117.28809 | 6074 ft | 230 kts | 303° |
| 2026-04-23 02:41 | 32.79066 | -117.30272 | 6591 ft | 204 kts | 303° |
| 2026-04-23 02:41 | 32.79867 | -117.31702 | 7073 ft | 206 kts | 304° |
| 2026-04-23 02:41 | 32.80738 | -117.33053 | 7562 ft | 207 kts | 307° |
| 2026-04-23 02:41 | 32.81627 | -117.34418 | 8084 ft | 209 kts | 306° |
| 2026-04-23 02:42 | 32.82511 | -117.35790 | 8616 ft | 208 kts | 306° |
| 2026-04-23 02:42 | 32.83389 | -117.37155 | 9148 ft | 209 kts | 305° |
| 2026-04-23 02:42 | 32.84266 | -117.38514 | 9705 ft | 210 kts | 305° |
| 2026-04-23 02:42 | 32.85167 | -117.39916 | 9999 ft | 220 kts | 305° |
| 2026-04-23 02:43 | 32.86093 | -117.41350 | 9998 ft | 215 kts | 305° |
| 2026-04-23 02:43 | 32.86992 | -117.42743 | 9992 ft | 209 kts | 305° |
| 2026-04-23 02:43 | 32.87878 | -117.44119 | 9989 ft | 209 kts | 305° |
| 2026-04-23 02:43 | 32.88763 | -117.45498 | 9989 ft | 210 kts | 305° |
| 2026-04-23 02:44 | 32.89655 | -117.46884 | 9990 ft | 211 kts | 305° |
| 2026-04-23 02:44 | 32.90538 | -117.48258 | 9993 ft | 212 kts | 305° |
| 2026-04-23 02:44 | 32.91435 | -117.49651 | 9993 ft | 212 kts | 305° |
| 2026-04-23 02:44 | 32.92335 | -117.51052 | 9993 ft | 213 kts | 305° |
| 2026-04-23 02:45 | 32.93237 | -117.52456 | 9994 ft | 214 kts | 305° |
| 2026-04-23 02:45 | 32.94139 | -117.53860 | 9992 ft | 213 kts | 305° |
| 2026-04-23 02:45 | 32.95038 | -117.55261 | 9991 ft | 212 kts | 305° |
| 2026-04-23 02:45 | 32.95935 | -117.56659 | 9990 ft | 212 kts | 305° |
| 2026-04-23 02:46 | 32.96828 | -117.58050 | 9989 ft | 211 kts | 305° |
| 2026-04-23 02:46 | 32.97709 | -117.59426 | 9988 ft | 211 kts | 305° |
| 2026-04-23 02:46 | 32.98597 | -117.60811 | 9987 ft | 210 kts | 305° |
| 2026-04-23 02:46 | 32.99483 | -117.62193 | 9987 ft | 210 kts | 305° |
| 2026-04-23 02:47 | 33.00368 | -117.63575 | 9994 ft | 210 kts | 305° |
| 2026-04-23 02:47 | 33.01254 | -117.64958 | 9992 ft | 210 kts | 304° |
| 2026-04-23 02:47 | 33.02137 | -117.66339 | 9993 ft | 210 kts | 305° |
| 2026-04-23 02:47 | 33.03023 | -117.67723 | 9993 ft | 210 kts | 305° |
| 2026-04-23 02:48 | 33.03610 | -117.68642 | 9996 ft | 210 kts | 305° |
| 2026-04-23 02:48 | 33.04785 | -117.70479 | 9996 ft | 210 kts | 305° |
| 2026-04-23 02:48 | 33.05671 | -117.71866 | 10001 ft | 210 kts | 305° |
| 2026-04-23 02:48 | 33.06282 | -117.72790 | 10000 ft | 211 kts | 308° |
| 2026-04-23 02:49 | 33.07365 | -117.73954 | 9997 ft | 212 kts | 317° |
| 2026-04-23 02:49 | 33.08492 | -117.75088 | 9998 ft | 212 kts | 315° |
| 2026-04-23 02:49 | 33.09612 | -117.76240 | 9999 ft | 212 kts | 315° |
| 2026-04-23 02:49 | 33.10738 | -117.77387 | 9999 ft | 212 kts | 316° |
| 2026-04-23 02:50 | 33.11865 | -117.78532 | 10000 ft | 212 kts | 316° |
| 2026-04-23 02:50 | 33.12989 | -117.79674 | 9999 ft | 212 kts | 316° |
| 2026-04-23 02:50 | 33.14116 | -117.80821 | 9999 ft | 213 kts | 316° |
| 2026-04-23 02:50 | 33.15243 | -117.81968 | 9999 ft | 213 kts | 316° |
| 2026-04-23 02:51 | 33.16355 | -117.83101 | 9999 ft | 213 kts | 316° |
| 2026-04-23 02:51 | 33.17483 | -117.84251 | 9999 ft | 213 kts | 316° |
| 2026-04-23 02:51 | 33.18623 | -117.85383 | 9997 ft | 213 kts | 320° |
| 2026-04-23 02:51 | 33.19942 | -117.86231 | 10000 ft | 218 kts | 333° |
| 2026-04-23 02:52 | 33.21424 | -117.86705 | 9999 ft | 222 kts | 343° |
| 2026-04-23 02:52 | 33.22941 | -117.87068 | 10001 ft | 221 kts | 342° |
| 2026-04-23 02:52 | 33.24451 | -117.87451 | 9996 ft | 221 kts | 342° |
| 2026-04-23 02:52 | 33.25939 | -117.87824 | 9996 ft | 221 kts | 342° |
| 2026-04-23 02:53 | 33.27448 | -117.88198 | 9997 ft | 221 kts | 342° |
| 2026-04-23 02:53 | 33.28957 | -117.88573 | 9997 ft | 222 kts | 342° |
| 2026-04-23 02:53 | 33.30468 | -117.88949 | 9995 ft | 220 kts | 342° |
| 2026-04-23 02:53 | 33.31950 | -117.89317 | 9552 ft | 219 kts | 342° |
| 2026-04-23 02:54 | 33.33444 | -117.89691 | 9117 ft | 219 kts | 343° |
| 2026-04-23 02:54 | 33.34935 | -117.90062 | 8690 ft | 217 kts | 343° |
| 2026-04-23 02:54 | 33.36413 | -117.90431 | 8278 ft | 216 kts | 344° |
| 2026-04-23 02:54 | 33.37886 | -117.90798 | 7877 ft | 215 kts | 344° |
| 2026-04-23 02:55 | 33.39309 | -117.91242 | 7464 ft | 213 kts | 339° |
| 2026-04-23 02:55 | 33.40716 | -117.91768 | 7116 ft | 211 kts | 339° |
| 2026-04-23 02:55 | 33.42099 | -117.92269 | 6989 ft | 203 kts | 340° |
| 2026-04-23 02:55 | 33.43471 | -117.92765 | 6987 ft | 210 kts | 340° |
| 2026-04-23 02:56 | 33.44889 | -117.93283 | 6997 ft | 216 kts | 340° |
| 2026-04-23 02:56 | 33.46329 | -117.93804 | 6996 ft | 216 kts | 340° |
| 2026-04-23 02:56 | 33.47762 | -117.94323 | 6996 ft | 215 kts | 340° |
| 2026-04-23 02:56 | 33.49192 | -117.94843 | 6997 ft | 214 kts | 340° |
| 2026-04-23 02:57 | 33.50618 | -117.95363 | 6995 ft | 214 kts | 340° |
| 2026-04-23 02:57 | 33.52021 | -117.95875 | 6997 ft | 213 kts | 340° |
| 2026-04-23 02:57 | 33.53444 | -117.96393 | 6995 ft | 214 kts | 340° |
| 2026-04-23 02:57 | 33.54876 | -117.96912 | 6996 ft | 215 kts | 340° |
| 2026-04-23 02:58 | 33.56288 | -117.97425 | 6720 ft | 211 kts | 340° |
| 2026-04-23 02:58 | 33.57706 | -117.97943 | 6294 ft | 213 kts | 341° |
| 2026-04-23 02:58 | 33.59105 | -117.98452 | 5973 ft | 209 kts | 341° |
| 2026-04-23 02:58 | 33.60464 | -117.98946 | 5682 ft | 205 kts | 340° |
| 2026-04-23 02:59 | 33.61835 | -117.99448 | 5318 ft | 205 kts | 340° |
| 2026-04-23 02:59 | 33.63197 | -117.99945 | 4986 ft | 204 kts | 341° |
| 2026-04-23 02:59 | 33.64555 | -118.00440 | 4651 ft | 202 kts | 341° |
| 2026-04-23 02:59 | 33.65902 | -118.00932 | 4300 ft | 202 kts | 341° |
| 2026-04-23 03:00 | 33.67254 | -118.01425 | 3959 ft | 202 kts | 341° |
| 2026-04-23 03:00 | 33.68596 | -118.01915 | 3646 ft | 201 kts | 341° |
| 2026-04-23 03:00 | 33.69907 | -118.02394 | 3588 ft | 193 kts | 341° |
| 2026-04-23 03:00 | 33.71160 | -118.02851 | 3575 ft | 188 kts | 341° |
| 2026-04-23 03:01 | 33.72403 | -118.03304 | 3573 ft | 185 kts | 340° |
| 2026-04-23 03:01 | 33.73644 | -118.03686 | 3566 ft | 185 kts | 349° |
| 2026-04-23 03:01 | 33.74931 | -118.03875 | 3579 ft | 187 kts | 351° |
| 2026-04-23 03:01 | 33.76232 | -118.04046 | 3552 ft | 188 kts | 351° |
| 2026-04-23 03:02 | 33.77537 | -118.04216 | 3558 ft | 189 kts | 352° |
| 2026-04-23 03:02 | 33.78844 | -118.04393 | 3549 ft | 189 kts | 352° |
| 2026-04-23 03:02 | 33.80151 | -118.04566 | 3546 ft | 188 kts | 352° |
| 2026-04-23 03:02 | 33.81454 | -118.04744 | 3546 ft | 188 kts | 351° |
| 2026-04-23 03:03 | 33.82755 | -118.04922 | 3542 ft | 187 kts | 351° |
| 2026-04-23 03:03 | 33.84030 | -118.05088 | 3542 ft | 187 kts | 352° |
| 2026-04-23 03:03 | 33.85323 | -118.05255 | 3545 ft | 187 kts | 351° |
| 2026-04-23 03:03 | 33.86616 | -118.05420 | 3570 ft | 187 kts | 351° |
| 2026-04-23 03:04 | 33.87912 | -118.05575 | 3571 ft | 187 kts | 351° |
| 2026-04-23 03:04 | 33.89208 | -118.05735 | 3570 ft | 187 kts | 350° |
| 2026-04-23 03:04 | 33.90503 | -118.05900 | 3569 ft | 187 kts | 351° |
| 2026-04-23 03:04 | 33.91798 | -118.06058 | 3570 ft | 187 kts | 351° |
| 2026-04-23 03:05 | 33.93015 | -118.06503 | 3559 ft | 183 kts | 321° |
| 2026-04-23 03:05 | 33.93706 | -118.07735 | 3574 ft | 180 kts | 293° |
| 2026-04-23 03:05 | 33.94146 | -118.09082 | 3583 ft | 165 kts | 292° |
| 2026-04-23 03:05 | 33.94547 | -118.10334 | 3561 ft | 158 kts | 291° |
| 2026-04-23 03:06 | 33.94939 | -118.11568 | 3566 ft | 157 kts | 291° |
| 2026-04-23 03:06 | 33.95317 | -118.12811 | 3565 ft | 158 kts | 287° |
| 2026-04-23 03:06 | 33.95474 | -118.14129 | 3569 ft | 159 kts | 277° |
| 2026-04-23 03:06 | 33.95580 | -118.15453 | 3572 ft | 159 kts | 277° |
| 2026-04-23 03:07 | 33.95687 | -118.16779 | 3570 ft | 158 kts | 275° |
| 2026-04-23 03:07 | 33.95575 | -118.18092 | 3577 ft | 161 kts | 264° |
| 2026-04-23 03:07 | 33.95414 | -118.19441 | 3587 ft | 163 kts | 265° |
| 2026-04-23 03:07 | 33.95266 | -118.20798 | 3580 ft | 165 kts | 265° |
| 2026-04-23 03:08 | 33.95145 | -118.22168 | 3562 ft | 163 kts | 270° |
| 2026-04-23 03:08 | 33.95186 | -118.23500 | 3596 ft | 156 kts | 272° |
| 2026-04-23 03:08 | 33.95244 | -118.24811 | 3203 ft | 160 kts | 276° |
| 2026-04-23 03:08 | 33.95370 | -118.26148 | 2891 ft | 159 kts | 278° |
| 2026-04-23 03:09 | 33.95505 | -118.27462 | 2608 ft | 156 kts | 275° |
| 2026-04-23 03:09 | 33.95310 | -118.28735 | 2303 ft | 154 kts | 252° |
| 2026-04-23 03:09 | 33.94857 | -118.29872 | 2229 ft | 143 kts | 251° |
| 2026-04-23 03:09 | 33.94584 | -118.31045 | 2349 ft | 152 kts | 259° |
| 2026-04-23 03:10 | 33.94274 | -118.32305 | 2296 ft | 155 kts | 256° |
| 2026-04-23 03:10 | 33.94041 | -118.33628 | 1901 ft | 157 kts | 265° |
| 2026-04-23 03:10 | 33.94032 | -118.34900 | 1481 ft | 154 kts | 269° |
| 2026-04-23 03:10 | 33.93944 | -118.36185 | 903 ft | 153 kts | 264° |
| 2026-04-23 03:11 | 33.93811 | -118.37429 | 427 ft | 143 kts | 264° |
| 2026-04-23 03:11 | 33.93701 | -118.38580 | 133 ft | 137 kts | 263° |
| 2026-04-23 03:11 | 33.93621 | -118.39395 | 117 ft | 43 kts | 262° |
| 2026-04-23 03:11 | 33.93589 | -118.39706 | 120 ft | 33 kts | 263° |
| 2026-04-23 03:12 | 33.93562 | -118.39956 | 118 ft | 28 kts | 258° |
| 2026-04-23 03:12 | 33.93504 | -118.40158 | 119 ft | 17 kts | 242° |
| 2026-04-23 03:12 | 33.93466 | -118.40238 | 120 ft | 0 kts | 233° |
| 2026-04-23 03:13 | 33.93445 | -118.40272 | 119 ft | 14 kts | 234° |
| 2026-04-23 03:13 | 33.93395 | -118.40417 | 120 ft | 24 kts | 262° |
| 2026-04-23 03:13 | 33.93377 | -118.40552 | 118 ft | 10 kts | 266° |
| 2026-04-23 03:13 | 33.93374 | -118.40587 | 120 ft | 0 kts | 255° |
| 2026-04-23 03:14 | 33.93373 | -118.40588 | 120 ft | 1 kts | 237° |
| 2026-04-23 03:14 | 33.93332 | -118.40582 | 118 ft | 16 kts | 171° |
| 2026-04-23 03:14 | 33.93278 | -118.40569 | 118 ft | 0 kts | 176° |